Página principal
METAR-TAF:

METAR-TAF

Aeroportos :

Aeroporto Internacional de Sunan

Pyongyang, Coreia do Norte

latitude: 39-02N, longitude: 125-47E, altura: 36 m

METAR: em falta

Hora: 21:46 (13:16 UTC)

Previsão

O boletim foi feito há 8 horas e 56 minutos, às 04:20 UTC
Previsão válida de 20 às 06 UTC a 21 às 06 UTC
Vento 12 kt de sul
Visibilidade 10 km ou mais
Nuvens fragmentadasa uma altura de 2300 ft
Temporariamente
de 20 às 06 UTC a 20 às 11 UTC
Visibilidade: 6000 m
Encobertoa uma altura de 2000 ft
chuva fraca
Tornando-se
de 20 às 18 UTC a 20 às 22 UTC
Vento 8 kt de nor-noroeste

TAF: ZKPY 200420Z 2006/2106 19006MPS 9999 BKN023 TX09/2006Z TNM02/2022Z TEMPO 2006/2011 6000 -RA OVC020 BECMG 2018/2022 34004MPS

Observações e previsões do tempo de mais de 4000 aeroportos (mensagens METAR e TAF).

As estações disponíveis são os pontos amarelos e vermelhos sobre o mapa.

Mova o rato sobre o mapa para ver o nome da estação.

Depois clique no ponto para visualizar as observações e previsões meteorológicas.

Para alterar o mapa : clique nos botões verdes com uma cruz preta para aumentar o zoom; no botão verde com uma pitada de zoom; ou nas setas verdes para mapas adjacentes.


METAR-TAF: